Moran, Minnesota
Current Conditions -  °F | °C
As of 11:34 PM on Tuesday 25 Nov 2014 (Local Time) from KSAZ Reporting Station
Overcast Overcast  
Wind Chill: -8°   Ceiling: 4100
Heat Index: -8°   Visibility: 10mi
Dew Point: -12°   Wind: 3mph
Humidity: 73%   Direction: 60°ENE
Pressure: 30.01"   Gusts: NA
Location:  46.4416°N, 94.6389°W
Report Text: KSAZ 260534Z AUTO 06003KT 10SM OVC041 M08/M12 A3001 RMK AO2
Loading
Personal Weather Stations






























Interactive Weather Map New forecast layout! Learn more

10-Day Weather Forecast

Advertisements
Track Severe Weather on mobile